sensor_id;sensor_type;location;lat;lon;timestamp;P1;durP1;ratioP1;P2;durP2;ratioP2
76210;SDS011;65003;49.518;11.280;2022-12-07T00:01:34;6.27;;;5.63;;
76210;SDS011;65003;49.518;11.280;2022-12-07T00:04:01;7.73;;;5.47;;
76210;SDS011;65003;49.518;11.280;2022-12-07T00:06:27;5.37;;;4.50;;
76210;SDS011;65003;49.518;11.280;2022-12-07T00:08:53;5.93;;;4.70;;
76210;SDS011;65003;49.518;11.280;2022-12-07T00:11:21;5.17;;;4.67;;
76210;SDS011;65003;49.518;11.280;2022-12-07T00:13:47;5.90;;;4.67;;
76210;SDS011;65003;49.518;11.280;2022-12-07T00:16:14;6.43;;;5.17;;
76210;SDS011;65003;49.518;11.280;2022-12-07T00:18:41;5.57;;;4.97;;
76210;SDS011;65003;49.518;11.280;2022-12-07T00:21:11;5.00;;;4.50;;
76210;SDS011;65003;49.518;11.280;2022-12-07T00:23:36;5.13;;;4.63;;
76210;SDS011;65003;49.518;11.280;2022-12-07T00:26:05;6.63;;;5.43;;
76210;SDS011;65003;49.518;11.280;2022-12-07T00:28:30;6.07;;;5.33;;
76210;SDS011;65003;49.518;11.280;2022-12-07T00:30:59;6.63;;;5.83;;
76210;SDS011;65003;49.518;11.280;2022-12-07T00:33:25;5.70;;;5.20;;
76210;SDS011;65003;49.518;11.280;2022-12-07T00:35:55;6.37;;;5.10;;
76210;SDS011;65003;49.518;11.280;2022-12-07T00:38:21;6.20;;;5.40;;
76210;SDS011;65003;49.518;11.280;2022-12-07T00:40:55;7.47;;;5.43;;
76210;SDS011;65003;49.518;11.280;2022-12-07T00:43:20;7.07;;;5.50;;
76210;SDS011;65003;49.518;11.280;2022-12-07T00:45:47;6.57;;;5.60;;
76210;SDS011;65003;49.518;11.280;2022-12-07T00:48:13;7.07;;;6.10;;
76210;SDS011;65003;49.518;11.280;2022-12-07T00:50:40;7.37;;;5.73;;
76210;SDS011;65003;49.518;11.280;2022-12-07T00:53:06;7.33;;;6.13;;
76210;SDS011;65003;49.518;11.280;2022-12-07T00:55:34;6.60;;;5.67;;
76210;SDS011;65003;49.518;11.280;2022-12-07T00:58:00;7.30;;;6.13;;
76210;SDS011;65003;49.518;11.280;2022-12-07T01:00:26;7.40;;;6.00;;
76210;SDS011;65003;49.518;11.280;2022-12-07T01:02:53;9.47;;;6.63;;
76210;SDS011;65003;49.518;11.280;2022-12-07T01:05:19;7.80;;;6.23;;
76210;SDS011;65003;49.518;11.280;2022-12-07T01:07:46;9.67;;;6.80;;
76210;SDS011;65003;49.518;11.280;2022-12-07T01:10:13;9.00;;;6.70;;
76210;SDS011;65003;49.518;11.280;2022-12-07T01:12:39;9.43;;;6.50;;
76210;SDS011;65003;49.518;11.280;2022-12-07T01:15:06;8.00;;;6.50;;
76210;SDS011;65003;49.518;11.280;2022-12-07T01:17:34;7.57;;;6.57;;
76210;SDS011;65003;49.518;11.280;2022-12-07T01:20:00;8.50;;;6.70;;
76210;SDS011;65003;49.518;11.280;2022-12-07T01:22:27;8.33;;;6.43;;
76210;SDS011;65003;49.518;11.280;2022-12-07T01:24:53;9.03;;;6.70;;
76210;SDS011;65003;49.518;11.280;2022-12-07T01:27:20;9.70;;;7.53;;
76210;SDS011;65003;49.518;11.280;2022-12-07T01:29:46;7.43;;;6.43;;
76210;SDS011;65003;49.518;11.280;2022-12-07T01:32:13;9.30;;;6.43;;
76210;SDS011;65003;49.518;11.280;2022-12-07T01:34:40;8.13;;;6.40;;
76210;SDS011;65003;49.518;11.280;2022-12-07T01:37:06;7.40;;;6.30;;
76210;SDS011;65003;49.518;11.280;2022-12-07T01:39:33;7.67;;;6.07;;
76210;SDS011;65003;49.518;11.280;2022-12-07T01:41:59;6.93;;;5.43;;
76210;SDS011;65003;49.518;11.280;2022-12-07T01:44:27;9.30;;;6.20;;
76210;SDS011;65003;49.518;11.280;2022-12-07T01:46:54;9.47;;;6.50;;
76210;SDS011;65003;49.518;11.280;2022-12-07T01:49:24;7.20;;;6.03;;
76210;SDS011;65003;49.518;11.280;2022-12-07T01:51:52;7.73;;;6.43;;
76210;SDS011;65003;49.518;11.280;2022-12-07T01:54:18;8.40;;;6.37;;
76210;SDS011;65003;49.518;11.280;2022-12-07T01:56:47;8.13;;;6.43;;
76210;SDS011;65003;49.518;11.280;2022-12-07T01:59:12;7.47;;;6.23;;
76210;SDS011;65003;49.518;11.280;2022-12-07T02:01:38;8.50;;;6.60;;
76210;SDS011;65003;49.518;11.280;2022-12-07T02:04:05;7.47;;;5.67;;
76210;SDS011;65003;49.518;11.280;2022-12-07T02:06:31;8.80;;;6.23;;
76210;SDS011;65003;49.518;11.280;2022-12-07T02:08:58;7.60;;;6.07;;
76210;SDS011;65003;49.518;11.280;2022-12-07T02:11:24;7.93;;;6.37;;
76210;SDS011;65003;49.518;11.280;2022-12-07T02:13:52;7.63;;;5.77;;
76210;SDS011;65003;49.518;11.280;2022-12-07T02:16:23;8.53;;;5.87;;
76210;SDS011;65003;49.518;11.280;2022-12-07T02:18:56;8.30;;;6.23;;
76210;SDS011;65003;49.518;11.280;2022-12-07T02:21:51;8.67;;;7.03;;
76210;SDS011;65003;49.518;11.280;2022-12-07T02:24:25;7.93;;;7.07;;
76210;SDS011;65003;49.518;11.280;2022-12-07T02:29:34;8.53;;;6.03;;
76210;SDS011;65003;49.518;11.280;2022-12-07T02:32:03;9.13;;;6.47;;
76210;SDS011;65003;49.518;11.280;2022-12-07T02:34:29;9.17;;;6.77;;
76210;SDS011;65003;49.518;11.280;2022-12-07T02:36:55;13.77;;;7.33;;
76210;SDS011;65003;49.518;11.280;2022-12-07T02:39:26;10.00;;;6.90;;
76210;SDS011;65003;49.518;11.280;2022-12-07T02:41:52;10.17;;;6.40;;
76210;SDS011;65003;49.518;11.280;2022-12-07T02:44:18;8.90;;;6.70;;
76210;SDS011;65003;49.518;11.280;2022-12-07T02:46:46;9.57;;;6.90;;
76210;SDS011;65003;49.518;11.280;2022-12-07T02:49:11;7.70;;;6.50;;
76210;SDS011;65003;49.518;11.280;2022-12-07T02:51:39;10.10;;;7.40;;
76210;SDS011;65003;49.518;11.280;2022-12-07T02:54:09;9.83;;;7.87;;
76210;SDS011;65003;49.518;11.280;2022-12-07T02:56:39;9.30;;;7.27;;
76210;SDS011;65003;49.518;11.280;2022-12-07T03:07:03;10.17;;;7.70;;
76210;SDS011;65003;49.518;11.280;2022-12-07T03:09:31;11.13;;;7.13;;
76210;SDS011;65003;49.518;11.280;2022-12-07T03:12:08;11.27;;;8.10;;
76210;SDS011;65003;49.518;11.280;2022-12-07T03:14:38;10.10;;;6.87;;
76210;SDS011;65003;49.518;11.280;2022-12-07T03:17:06;8.17;;;6.90;;
76210;SDS011;65003;49.518;11.280;2022-12-07T03:19:31;10.53;;;7.73;;
76210;SDS011;65003;49.518;11.280;2022-12-07T03:22:00;10.73;;;7.53;;
76210;SDS011;65003;49.518;11.280;2022-12-07T03:24:27;8.50;;;7.10;;
76210;SDS011;65003;49.518;11.280;2022-12-07T03:26:56;9.30;;;7.33;;
76210;SDS011;65003;49.518;11.280;2022-12-07T03:29:24;9.57;;;6.83;;
76210;SDS011;65003;49.518;11.280;2022-12-07T03:31:51;8.53;;;7.20;;
76210;SDS011;65003;49.518;11.280;2022-12-07T03:34:19;10.77;;;7.83;;
76210;SDS011;65003;49.518;11.280;2022-12-07T03:36:49;9.97;;;7.13;;
76210;SDS011;65003;49.518;11.280;2022-12-07T03:39:19;10.90;;;7.47;;
76210;SDS011;65003;49.518;11.280;2022-12-07T03:41:53;9.20;;;6.57;;
76210;SDS011;65003;49.518;11.280;2022-12-07T03:44:19;9.47;;;6.90;;
76210;SDS011;65003;49.518;11.280;2022-12-07T03:52:03;11.03;;;7.87;;
76210;SDS011;65003;49.518;11.280;2022-12-07T03:54:52;9.90;;;7.57;;
76210;SDS011;65003;49.518;11.280;2022-12-07T03:57:15;11.20;;;7.87;;
76210;SDS011;65003;49.518;11.280;2022-12-07T03:59:42;12.07;;;7.73;;
76210;SDS011;65003;49.518;11.280;2022-12-07T04:02:08;10.87;;;7.77;;
76210;SDS011;65003;49.518;11.280;2022-12-07T04:04:35;12.10;;;8.07;;
76210;SDS011;65003;49.518;11.280;2022-12-07T04:07:02;10.43;;;8.27;;
76210;SDS011;65003;49.518;11.280;2022-12-07T04:09:28;10.70;;;8.07;;
76210;SDS011;65003;49.518;11.280;2022-12-07T04:11:55;11.43;;;7.97;;
76210;SDS011;65003;49.518;11.280;2022-12-07T04:14:21;10.83;;;8.23;;
76210;SDS011;65003;49.518;11.280;2022-12-07T04:16:49;10.87;;;8.10;;
76210;SDS011;65003;49.518;11.280;2022-12-07T04:19:16;12.00;;;8.13;;
76210;SDS011;65003;49.518;11.280;2022-12-07T04:21:42;9.90;;;7.40;;
76210;SDS011;65003;49.518;11.280;2022-12-07T04:24:09;11.00;;;7.40;;
76210;SDS011;65003;49.518;11.280;2022-12-07T04:26:35;12.23;;;8.17;;
76210;SDS011;65003;49.518;11.280;2022-12-07T04:29:02;9.40;;;7.77;;
76210;SDS011;65003;49.518;11.280;2022-12-07T04:31:28;12.07;;;7.77;;
76210;SDS011;65003;49.518;11.280;2022-12-07T04:33:55;11.27;;;8.20;;
76210;SDS011;65003;49.518;11.280;2022-12-07T04:36:22;12.73;;;8.40;;
76210;SDS011;65003;49.518;11.280;2022-12-07T04:38:48;13.83;;;8.50;;
76210;SDS011;65003;49.518;11.280;2022-12-07T04:41:15;14.73;;;9.20;;
76210;SDS011;65003;49.518;11.280;2022-12-07T04:43:41;12.17;;;7.57;;
76210;SDS011;65003;49.518;11.280;2022-12-07T04:46:08;11.73;;;8.10;;
76210;SDS011;65003;49.518;11.280;2022-12-07T04:48:34;11.30;;;8.80;;
76210;SDS011;65003;49.518;11.280;2022-12-07T04:51:02;13.63;;;8.67;;
76210;SDS011;65003;49.518;11.280;2022-12-07T04:53:28;13.33;;;9.43;;
76210;SDS011;65003;49.518;11.280;2022-12-07T04:55:54;13.93;;;9.30;;
76210;SDS011;65003;49.518;11.280;2022-12-07T04:58:21;14.47;;;8.80;;
76210;SDS011;65003;49.518;11.280;2022-12-07T05:00:47;13.27;;;9.50;;
76210;SDS011;65003;49.518;11.280;2022-12-07T05:03:14;14.83;;;8.73;;
76210;SDS011;65003;49.518;11.280;2022-12-07T05:05:41;13.17;;;8.20;;
76210;SDS011;65003;49.518;11.280;2022-12-07T05:08:07;13.90;;;9.23;;
76210;SDS011;65003;49.518;11.280;2022-12-07T05:10:34;12.10;;;8.67;;
76210;SDS011;65003;49.518;11.280;2022-12-07T05:13:00;13.80;;;8.73;;
76210;SDS011;65003;49.518;11.280;2022-12-07T05:15:27;11.63;;;8.27;;
76210;SDS011;65003;49.518;11.280;2022-12-07T05:17:53;12.07;;;9.03;;
76210;SDS011;65003;49.518;11.280;2022-12-07T05:20:20;12.67;;;8.83;;
76210;SDS011;65003;49.518;11.280;2022-12-07T05:22:47;11.90;;;8.47;;
76210;SDS011;65003;49.518;11.280;2022-12-07T05:25:13;11.27;;;7.93;;
76210;SDS011;65003;49.518;11.280;2022-12-07T05:27:40;12.83;;;8.73;;
76210;SDS011;65003;49.518;11.280;2022-12-07T05:30:07;12.00;;;8.97;;
76210;SDS011;65003;49.518;11.280;2022-12-07T05:32:34;11.67;;;8.40;;
76210;SDS011;65003;49.518;11.280;2022-12-07T05:35:00;11.53;;;8.20;;
76210;SDS011;65003;49.518;11.280;2022-12-07T05:37:27;15.93;;;9.73;;
76210;SDS011;65003;49.518;11.280;2022-12-07T05:39:53;12.33;;;8.60;;
76210;SDS011;65003;49.518;11.280;2022-12-07T05:42:20;14.10;;;9.03;;
76210;SDS011;65003;49.518;11.280;2022-12-07T05:44:46;15.10;;;9.37;;
76210;SDS011;65003;49.518;11.280;2022-12-07T05:47:14;11.03;;;8.90;;
76210;SDS011;65003;49.518;11.280;2022-12-07T05:49:40;11.07;;;8.30;;
76210;SDS011;65003;49.518;11.280;2022-12-07T05:52:06;11.87;;;8.53;;
76210;SDS011;65003;49.518;11.280;2022-12-07T05:54:33;14.47;;;9.13;;
76210;SDS011;65003;49.518;11.280;2022-12-07T05:56:59;16.53;;;9.93;;
76210;SDS011;65003;49.518;11.280;2022-12-07T05:59:26;16.80;;;11.03;;
76210;SDS011;65003;49.518;11.280;2022-12-07T06:01:57;25.93;;;15.03;;
76210;SDS011;65003;49.518;11.280;2022-12-07T06:04:28;13.07;;;9.47;;
76210;SDS011;65003;49.518;11.280;2022-12-07T06:06:53;13.57;;;9.07;;
76210;SDS011;65003;49.518;11.280;2022-12-07T06:09:20;13.20;;;9.50;;
76210;SDS011;65003;49.518;11.280;2022-12-07T06:11:46;14.93;;;9.70;;
76210;SDS011;65003;49.518;11.280;2022-12-07T06:14:19;13.13;;;8.90;;
76210;SDS011;65003;49.518;11.280;2022-12-07T06:16:45;12.50;;;9.53;;
76210;SDS011;65003;49.518;11.280;2022-12-07T06:19:12;14.90;;;9.43;;
76210;SDS011;65003;49.518;11.280;2022-12-07T06:21:38;12.30;;;8.60;;
76210;SDS011;65003;49.518;11.280;2022-12-07T06:24:05;13.73;;;8.73;;
76210;SDS011;65003;49.518;11.280;2022-12-07T06:26:32;16.40;;;10.30;;
76210;SDS011;65003;49.518;11.280;2022-12-07T06:28:58;14.73;;;9.30;;
76210;SDS011;65003;49.518;11.280;2022-12-07T06:31:25;15.73;;;8.80;;
76210;SDS011;65003;49.518;11.280;2022-12-07T06:33:56;14.30;;;9.00;;
76210;SDS011;65003;49.518;11.280;2022-12-07T06:36:18;15.03;;;10.70;;
76210;SDS011;65003;49.518;11.280;2022-12-07T06:38:45;17.03;;;12.07;;
76210;SDS011;65003;49.518;11.280;2022-12-07T06:41:11;19.10;;;10.70;;
76210;SDS011;65003;49.518;11.280;2022-12-07T06:43:38;14.67;;;10.27;;
76210;SDS011;65003;49.518;11.280;2022-12-07T06:46:04;15.10;;;9.60;;
76210;SDS011;65003;49.518;11.280;2022-12-07T06:48:31;15.30;;;10.77;;
76210;SDS011;65003;49.518;11.280;2022-12-07T06:50:58;16.93;;;10.60;;
76210;SDS011;65003;49.518;11.280;2022-12-07T06:53:24;17.83;;;13.50;;
76210;SDS011;65003;49.518;11.280;2022-12-07T06:55:51;22.60;;;17.33;;
76210;SDS011;65003;49.518;11.280;2022-12-07T06:58:17;17.00;;;11.60;;
76210;SDS011;65003;49.518;11.280;2022-12-07T07:00:44;18.90;;;13.17;;
76210;SDS011;65003;49.518;11.280;2022-12-07T07:03:11;13.43;;;10.07;;
76210;SDS011;65003;49.518;11.280;2022-12-07T07:05:37;23.93;;;16.73;;
76210;SDS011;65003;49.518;11.280;2022-12-07T07:08:04;17.50;;;11.23;;
76210;SDS011;65003;49.518;11.280;2022-12-07T07:10:30;17.50;;;11.63;;
76210;SDS011;65003;49.518;11.280;2022-12-07T07:12:57;18.03;;;13.10;;
76210;SDS011;65003;49.518;11.280;2022-12-07T07:15:23;20.27;;;14.47;;
76210;SDS011;65003;49.518;11.280;2022-12-07T07:17:50;25.93;;;22.07;;
76210;SDS011;65003;49.518;11.280;2022-12-07T07:20:17;21.33;;;15.00;;
76210;SDS011;65003;49.518;11.280;2022-12-07T07:22:43;16.17;;;11.07;;
76210;SDS011;65003;49.518;11.280;2022-12-07T07:25:10;19.63;;;12.53;;
76210;SDS011;65003;49.518;11.280;2022-12-07T07:27:37;21.63;;;18.20;;
76210;SDS011;65003;49.518;11.280;2022-12-07T07:30:04;22.07;;;15.50;;
76210;SDS011;65003;49.518;11.280;2022-12-07T07:32:31;18.77;;;11.77;;
76210;SDS011;65003;49.518;11.280;2022-12-07T07:34:58;18.30;;;12.97;;
76210;SDS011;65003;49.518;11.280;2022-12-07T07:37:25;16.77;;;10.93;;
76210;SDS011;65003;49.518;11.280;2022-12-07T07:39:51;16.83;;;11.40;;
76210;SDS011;65003;49.518;11.280;2022-12-07T07:42:18;16.83;;;10.77;;
76210;SDS011;65003;49.518;11.280;2022-12-07T07:44:44;16.83;;;11.43;;
76210;SDS011;65003;49.518;11.280;2022-12-07T07:47:11;16.70;;;11.47;;
76210;SDS011;65003;49.518;11.280;2022-12-07T07:49:38;17.27;;;10.77;;
76210;SDS011;65003;49.518;11.280;2022-12-07T07:52:05;16.27;;;10.23;;
76210;SDS011;65003;49.518;11.280;2022-12-07T07:54:31;17.03;;;11.63;;
76210;SDS011;65003;49.518;11.280;2022-12-07T07:56:57;79.97;;;39.37;;
76210;SDS011;65003;49.518;11.280;2022-12-07T07:59:24;38.00;;;22.57;;
76210;SDS011;65003;49.518;11.280;2022-12-07T08:01:51;18.70;;;12.67;;
76210;SDS011;65003;49.518;11.280;2022-12-07T08:04:17;20.53;;;13.87;;
76210;SDS011;65003;49.518;11.280;2022-12-07T08:06:44;20.83;;;13.97;;
76210;SDS011;65003;49.518;11.280;2022-12-07T08:09:10;21.83;;;16.00;;
76210;SDS011;65003;49.518;11.280;2022-12-07T08:11:37;20.63;;;13.37;;
76210;SDS011;65003;49.518;11.280;2022-12-07T08:14:03;18.97;;;11.27;;
76210;SDS011;65003;49.518;11.280;2022-12-07T08:16:30;19.60;;;11.60;;
76210;SDS011;65003;49.518;11.280;2022-12-07T08:18:57;18.90;;;11.93;;
76210;SDS011;65003;49.518;11.280;2022-12-07T08:21:23;22.03;;;13.10;;
76210;SDS011;65003;49.518;11.280;2022-12-07T08:23:50;19.77;;;12.50;;
76210;SDS011;65003;49.518;11.280;2022-12-07T08:26:16;20.27;;;11.87;;
76210;SDS011;65003;49.518;11.280;2022-12-07T08:28:43;27.70;;;16.60;;
76210;SDS011;65003;49.518;11.280;2022-12-07T08:31:11;16.70;;;11.63;;
76210;SDS011;65003;49.518;11.280;2022-12-07T08:33:37;18.33;;;11.63;;
76210;SDS011;65003;49.518;11.280;2022-12-07T08:36:04;20.37;;;12.77;;
76210;SDS011;65003;49.518;11.280;2022-12-07T08:38:31;20.03;;;14.20;;
76210;SDS011;65003;49.518;11.280;2022-12-07T08:40:58;22.77;;;13.50;;
76210;SDS011;65003;49.518;11.280;2022-12-07T08:43:24;21.90;;;14.17;;
76210;SDS011;65003;49.518;11.280;2022-12-07T08:45:53;18.67;;;12.73;;
76210;SDS011;65003;49.518;11.280;2022-12-07T08:48:18;20.50;;;13.33;;
76210;SDS011;65003;49.518;11.280;2022-12-07T08:50:45;19.07;;;11.47;;
76210;SDS011;65003;49.518;11.280;2022-12-07T08:53:11;19.90;;;15.33;;
76210;SDS011;65003;49.518;11.280;2022-12-07T08:55:38;21.77;;;14.20;;
76210;SDS011;65003;49.518;11.280;2022-12-07T08:58:04;20.57;;;14.07;;
76210;SDS011;65003;49.518;11.280;2022-12-07T09:00:31;19.80;;;11.93;;
76210;SDS011;65003;49.518;11.280;2022-12-07T09:02:58;17.57;;;10.23;;
76210;SDS011;65003;49.518;11.280;2022-12-07T09:05:24;20.97;;;12.83;;
76210;SDS011;65003;49.518;11.280;2022-12-07T09:07:51;18.47;;;10.73;;
76210;SDS011;65003;49.518;11.280;2022-12-07T09:10:17;18.43;;;11.77;;
76210;SDS011;65003;49.518;11.280;2022-12-07T09:12:44;18.43;;;11.63;;
76210;SDS011;65003;49.518;11.280;2022-12-07T09:15:10;18.80;;;12.23;;
76210;SDS011;65003;49.518;11.280;2022-12-07T09:17:37;18.00;;;12.50;;
76210;SDS011;65003;49.518;11.280;2022-12-07T09:20:04;19.30;;;12.23;;
76210;SDS011;65003;49.518;11.280;2022-12-07T09:22:32;16.87;;;10.80;;
76210;SDS011;65003;49.518;11.280;2022-12-07T09:24:58;21.53;;;14.10;;
76210;SDS011;65003;49.518;11.280;2022-12-07T09:27:25;20.90;;;14.53;;
76210;SDS011;65003;49.518;11.280;2022-12-07T09:29:51;22.03;;;16.43;;
76210;SDS011;65003;49.518;11.280;2022-12-07T09:32:18;21.63;;;17.27;;
76210;SDS011;65003;49.518;11.280;2022-12-07T09:34:44;20.83;;;14.50;;
76210;SDS011;65003;49.518;11.280;2022-12-07T09:37:11;19.10;;;12.13;;
76210;SDS011;65003;49.518;11.280;2022-12-07T09:39:38;20.33;;;11.77;;
76210;SDS011;65003;49.518;11.280;2022-12-07T09:42:04;15.63;;;9.67;;
76210;SDS011;65003;49.518;11.280;2022-12-07T09:44:31;17.97;;;12.33;;
76210;SDS011;65003;49.518;11.280;2022-12-07T09:46:57;18.63;;;10.67;;
76210;SDS011;65003;49.518;11.280;2022-12-07T09:49:24;17.53;;;9.30;;
76210;SDS011;65003;49.518;11.280;2022-12-07T09:54:26;23.63;;;14.20;;
76210;SDS011;65003;49.518;11.280;2022-12-07T09:56:52;43.87;;;33.03;;
76210;SDS011;65003;49.518;11.280;2022-12-07T09:59:19;33.50;;;20.53;;
76210;SDS011;65003;49.518;11.280;2022-12-07T10:01:46;16.40;;;10.80;;
76210;SDS011;65003;49.518;11.280;2022-12-07T10:04:16;14.10;;;8.90;;
76210;SDS011;65003;49.518;11.280;2022-12-07T10:06:42;14.17;;;9.00;;
76210;SDS011;65003;49.518;11.280;2022-12-07T10:09:09;15.30;;;10.17;;
76210;SDS011;65003;49.518;11.280;2022-12-07T10:11:43;13.83;;;9.50;;
76210;SDS011;65003;49.518;11.280;2022-12-07T10:16:38;17.53;;;10.33;;
76210;SDS011;65003;49.518;11.280;2022-12-07T10:21:41;13.20;;;7.73;;
76210;SDS011;65003;49.518;11.280;2022-12-07T10:24:13;12.33;;;7.33;;
76210;SDS011;65003;49.518;11.280;2022-12-07T10:26:48;12.33;;;7.90;;
76210;SDS011;65003;49.518;11.280;2022-12-07T10:29:17;12.83;;;8.03;;
76210;SDS011;65003;49.518;11.280;2022-12-07T10:31:48;16.20;;;9.37;;
76210;SDS011;65003;49.518;11.280;2022-12-07T10:36:50;13.17;;;8.53;;
76210;SDS011;65003;49.518;11.280;2022-12-07T10:39:18;15.33;;;10.00;;
76210;SDS011;65003;49.518;11.280;2022-12-07T10:44:24;15.07;;;10.20;;
76210;SDS011;65003;49.518;11.280;2022-12-07T10:46:57;11.30;;;8.30;;
76210;SDS011;65003;49.518;11.280;2022-12-07T10:49:32;13.97;;;8.40;;
76210;SDS011;65003;49.518;11.280;2022-12-07T10:52:03;12.63;;;8.40;;
76210;SDS011;65003;49.518;11.280;2022-12-07T10:57:04;15.40;;;8.40;;
76210;SDS011;65003;49.518;11.280;2022-12-07T10:59:36;13.60;;;8.43;;
76210;SDS011;65003;49.518;11.280;2022-12-07T11:07:41;12.13;;;8.60;;
76210;SDS011;65003;49.518;11.280;2022-12-07T11:10:08;15.90;;;8.60;;
76210;SDS011;65003;49.518;11.280;2022-12-07T11:15:22;13.87;;;8.47;;
76210;SDS011;65003;49.518;11.280;2022-12-07T11:17:53;12.50;;;8.63;;
76210;SDS011;65003;49.518;11.280;2022-12-07T11:20:28;11.40;;;8.10;;
76210;SDS011;65003;49.518;11.280;2022-12-07T11:23:01;14.17;;;7.90;;
76210;SDS011;65003;49.518;11.280;2022-12-07T11:25:32;12.83;;;8.90;;
76210;SDS011;65003;49.518;11.280;2022-12-07T11:28:05;12.97;;;8.10;;
76210;SDS011;65003;49.518;11.280;2022-12-07T11:30:32;15.07;;;8.50;;
76210;SDS011;65003;49.518;11.280;2022-12-07T11:34:15;14.97;;;9.90;;
76210;SDS011;65003;49.518;11.280;2022-12-07T11:36:09;16.37;;;11.33;;
76210;SDS011;65003;49.518;11.280;2022-12-07T11:38:36;13.07;;;9.60;;
76210;SDS011;65003;49.518;11.280;2022-12-07T11:41:11;13.07;;;9.30;;
76210;SDS011;65003;49.518;11.280;2022-12-07T11:43:50;14.80;;;9.60;;
76210;SDS011;65003;49.518;11.280;2022-12-07T11:46:17;12.57;;;9.73;;
76210;SDS011;65003;49.518;11.280;2022-12-07T11:48:46;13.87;;;9.87;;
76210;SDS011;65003;49.518;11.280;2022-12-07T11:51:26;15.10;;;9.50;;
76210;SDS011;65003;49.518;11.280;2022-12-07T11:53:54;14.60;;;9.13;;
76210;SDS011;65003;49.518;11.280;2022-12-07T11:56:21;16.60;;;10.20;;
76210;SDS011;65003;49.518;11.280;2022-12-07T11:58:55;18.47;;;10.83;;
76210;SDS011;65003;49.518;11.280;2022-12-07T12:01:26;15.27;;;9.27;;
76210;SDS011;65003;49.518;11.280;2022-12-07T12:03:53;12.67;;;8.00;;
76210;SDS011;65003;49.518;11.280;2022-12-07T12:06:19;13.70;;;9.17;;
76210;SDS011;65003;49.518;11.280;2022-12-07T12:08:51;14.70;;;9.13;;
76210;SDS011;65003;49.518;11.280;2022-12-07T12:14:05;13.13;;;8.20;;
76210;SDS011;65003;49.518;11.280;2022-12-07T12:16:58;13.97;;;9.13;;
76210;SDS011;65003;49.518;11.280;2022-12-07T12:19:35;15.47;;;8.87;;
76210;SDS011;65003;49.518;11.280;2022-12-07T12:22:11;14.27;;;9.00;;
76210;SDS011;65003;49.518;11.280;2022-12-07T12:24:38;12.23;;;8.00;;
76210;SDS011;65003;49.518;11.280;2022-12-07T12:27:06;11.57;;;8.07;;
76210;SDS011;65003;49.518;11.280;2022-12-07T12:29:33;11.60;;;8.43;;
76210;SDS011;65003;49.518;11.280;2022-12-07T12:32:06;25.03;;;12.30;;
76210;SDS011;65003;49.518;11.280;2022-12-07T12:34:33;20.67;;;11.67;;
76210;SDS011;65003;49.518;11.280;2022-12-07T12:37:13;12.57;;;8.70;;
76210;SDS011;65003;49.518;11.280;2022-12-07T12:39:31;15.40;;;10.03;;
76210;SDS011;65003;49.518;11.280;2022-12-07T12:41:57;12.37;;;8.37;;
76210;SDS011;65003;49.518;11.280;2022-12-07T12:44:39;13.03;;;8.50;;
76210;SDS011;65003;49.518;11.280;2022-12-07T12:49:38;13.33;;;8.93;;
76210;SDS011;65003;49.518;11.280;2022-12-07T12:57:27;12.07;;;7.53;;
76210;SDS011;65003;49.518;11.280;2022-12-07T12:59:56;14.73;;;8.17;;
76210;SDS011;65003;49.518;11.280;2022-12-07T13:02:24;11.70;;;8.17;;
76210;SDS011;65003;49.518;11.280;2022-12-07T13:04:53;14.57;;;8.57;;
76210;SDS011;65003;49.518;11.280;2022-12-07T13:09:57;12.50;;;7.70;;
76210;SDS011;65003;49.518;11.280;2022-12-07T13:12:24;12.33;;;8.93;;
76210;SDS011;65003;49.518;11.280;2022-12-07T13:14:53;11.87;;;7.80;;
76210;SDS011;65003;49.518;11.280;2022-12-07T13:20:08;12.43;;;8.20;;
76210;SDS011;65003;49.518;11.280;2022-12-07T13:22:37;13.67;;;7.77;;
76210;SDS011;65003;49.518;11.280;2022-12-07T13:25:18;11.97;;;8.30;;
76210;SDS011;65003;49.518;11.280;2022-12-07T13:27:48;10.17;;;8.07;;
76210;SDS011;65003;49.518;11.280;2022-12-07T13:30:27;11.67;;;8.13;;
76210;SDS011;65003;49.518;11.280;2022-12-07T13:32:55;12.90;;;8.40;;
76210;SDS011;65003;49.518;11.280;2022-12-07T13:35:28;12.47;;;8.10;;
76210;SDS011;65003;49.518;11.280;2022-12-07T13:37:55;13.63;;;8.43;;
76210;SDS011;65003;49.518;11.280;2022-12-07T13:40:22;12.67;;;9.07;;
76210;SDS011;65003;49.518;11.280;2022-12-07T13:42:57;12.17;;;8.13;;
76210;SDS011;65003;49.518;11.280;2022-12-07T13:45:24;10.73;;;7.57;;
76210;SDS011;65003;49.518;11.280;2022-12-07T13:47:53;11.20;;;8.50;;
76210;SDS011;65003;49.518;11.280;2022-12-07T13:50:25;13.73;;;8.17;;
76210;SDS011;65003;49.518;11.280;2022-12-07T13:52:54;10.97;;;7.97;;
76210;SDS011;65003;49.518;11.280;2022-12-07T13:55:18;10.70;;;7.93;;
76210;SDS011;65003;49.518;11.280;2022-12-07T13:57:45;13.37;;;8.67;;
76210;SDS011;65003;49.518;11.280;2022-12-07T14:00:27;13.77;;;8.53;;
76210;SDS011;65003;49.518;11.280;2022-12-07T14:02:56;10.73;;;7.97;;
76210;SDS011;65003;49.518;11.280;2022-12-07T14:05:24;11.67;;;8.07;;
76210;SDS011;65003;49.518;11.280;2022-12-07T14:07:56;12.80;;;8.80;;
76210;SDS011;65003;49.518;11.280;2022-12-07T14:10:30;13.43;;;10.20;;
76210;SDS011;65003;49.518;11.280;2022-12-07T14:12:57;14.93;;;9.43;;
76210;SDS011;65003;49.518;11.280;2022-12-07T14:15:27;19.37;;;17.23;;
76210;SDS011;65003;49.518;11.280;2022-12-07T14:17:53;31.27;;;20.60;;
76210;SDS011;65003;49.518;11.280;2022-12-07T14:22:55;19.00;;;15.13;;
76210;SDS011;65003;49.518;11.280;2022-12-07T14:25:22;14.03;;;9.70;;
76210;SDS011;65003;49.518;11.280;2022-12-07T14:27:50;16.63;;;12.70;;
76210;SDS011;65003;49.518;11.280;2022-12-07T14:30:16;19.60;;;14.60;;
76210;SDS011;65003;49.518;11.280;2022-12-07T14:32:43;29.67;;;18.90;;
76210;SDS011;65003;49.518;11.280;2022-12-07T14:35:10;23.77;;;21.47;;
76210;SDS011;65003;49.518;11.280;2022-12-07T14:37:36;19.13;;;16.77;;
76210;SDS011;65003;49.518;11.280;2022-12-07T14:40:03;29.17;;;21.17;;
76210;SDS011;65003;49.518;11.280;2022-12-07T14:42:30;11.53;;;8.53;;
76210;SDS011;65003;49.518;11.280;2022-12-07T14:44:57;14.33;;;11.53;;
76210;SDS011;65003;49.518;11.280;2022-12-07T14:47:24;12.97;;;10.03;;
76210;SDS011;65003;49.518;11.280;2022-12-07T14:49:51;12.97;;;9.10;;
76210;SDS011;65003;49.518;11.280;2022-12-07T14:52:20;38.80;;;23.37;;
76210;SDS011;65003;49.518;11.280;2022-12-07T14:54:46;30.57;;;18.93;;
76210;SDS011;65003;49.518;11.280;2022-12-07T14:57:13;17.60;;;12.33;;
76210;SDS011;65003;49.518;11.280;2022-12-07T14:59:40;12.60;;;8.53;;
76210;SDS011;65003;49.518;11.280;2022-12-07T15:02:06;14.20;;;11.40;;
76210;SDS011;65003;49.518;11.280;2022-12-07T15:04:33;15.23;;;12.60;;
76210;SDS011;65003;49.518;11.280;2022-12-07T15:07:00;11.93;;;9.97;;
76210;SDS011;65003;49.518;11.280;2022-12-07T15:09:26;13.93;;;9.97;;
76210;SDS011;65003;49.518;11.280;2022-12-07T15:11:52;12.17;;;7.80;;
76210;SDS011;65003;49.518;11.280;2022-12-07T15:14:19;16.00;;;13.87;;
76210;SDS011;65003;49.518;11.280;2022-12-07T15:16:46;11.37;;;8.47;;
76210;SDS011;65003;49.518;11.280;2022-12-07T15:19:13;9.27;;;7.27;;
76210;SDS011;65003;49.518;11.280;2022-12-07T15:21:39;8.63;;;6.30;;
76210;SDS011;65003;49.518;11.280;2022-12-07T15:24:05;18.37;;;13.90;;